sensor_id;sensor_type;location;lat;lon;timestamp;temperature;humidity
52555;DHT22;38455;52.710;6.502;2023-08-01T00:00:38;16.90;99.90
52555;DHT22;38455;52.710;6.502;2023-08-01T00:03:04;16.90;99.90
52555;DHT22;38455;52.710;6.502;2023-08-01T00:05:30;16.90;99.90
52555;DHT22;38455;52.710;6.502;2023-08-01T00:07:55;16.90;99.90
52555;DHT22;38455;52.710;6.502;2023-08-01T00:10:21;16.90;99.90
52555;DHT22;38455;52.710;6.502;2023-08-01T00:12:47;16.90;99.90
52555;DHT22;38455;52.710;6.502;2023-08-01T00:15:13;16.80;99.90
52555;DHT22;38455;52.710;6.502;2023-08-01T00:17:39;16.80;99.90
52555;DHT22;38455;52.710;6.502;2023-08-01T00:20:06;16.80;99.90
52555;DHT22;38455;52.710;6.502;2023-08-01T00:22:32;16.80;99.90
52555;DHT22;38455;52.710;6.502;2023-08-01T00:24:57;16.80;99.90
52555;DHT22;38455;52.710;6.502;2023-08-01T00:27:24;16.80;99.90
52555;DHT22;38455;52.710;6.502;2023-08-01T00:29:49;16.80;99.90
52555;DHT22;38455;52.710;6.502;2023-08-01T00:32:15;16.70;99.90
52555;DHT22;38455;52.710;6.502;2023-08-01T00:34:41;16.70;99.90
52555;DHT22;38455;52.710;6.502;2023-08-01T00:37:06;16.70;99.90
52555;DHT22;38455;52.710;6.502;2023-08-01T00:39:32;16.70;99.90
52555;DHT22;38455;52.710;6.502;2023-08-01T00:41:58;16.70;99.90
52555;DHT22;38455;52.710;6.502;2023-08-01T00:44:24;16.70;99.90
52555;DHT22;38455;52.710;6.502;2023-08-01T00:46:50;16.70;99.90
52555;DHT22;38455;52.710;6.502;2023-08-01T00:49:16;16.70;99.90
52555;DHT22;38455;52.710;6.502;2023-08-01T00:51:42;16.70;99.90
52555;DHT22;38455;52.710;6.502;2023-08-01T00:54:08;16.70;99.90
52555;DHT22;38455;52.710;6.502;2023-08-01T00:56:34;16.70;99.90
52555;DHT22;38455;52.710;6.502;2023-08-01T00:59:01;16.70;99.90
52555;DHT22;38455;52.710;6.502;2023-08-01T01:01:26;16.70;99.90
52555;DHT22;38455;52.710;6.502;2023-08-01T01:03:52;16.70;99.90
52555;DHT22;38455;52.710;6.502;2023-08-01T01:09:13;16.70;99.90
52555;DHT22;38455;52.710;6.502;2023-08-01T01:11:39;16.70;99.90
52555;DHT22;38455;52.710;6.502;2023-08-01T01:14:05;16.70;99.90
52555;DHT22;38455;52.710;6.502;2023-08-01T01:16:30;16.60;99.90
52555;DHT22;38455;52.710;6.502;2023-08-01T01:18:56;16.70;99.90
52555;DHT22;38455;52.710;6.502;2023-08-01T01:21:22;16.60;99.90
52555;DHT22;38455;52.710;6.502;2023-08-01T01:23:49;16.60;99.90
52555;DHT22;38455;52.710;6.502;2023-08-01T01:26:16;16.60;99.90
52555;DHT22;38455;52.710;6.502;2023-08-01T01:28:49;16.60;99.90
52555;DHT22;38455;52.710;6.502;2023-08-01T01:31:16;16.50;99.90
52555;DHT22;38455;52.710;6.502;2023-08-01T01:33:42;16.50;99.90
52555;DHT22;38455;52.710;6.502;2023-08-01T01:36:08;16.50;99.90
52555;DHT22;38455;52.710;6.502;2023-08-01T01:38:33;16.50;99.90
52555;DHT22;38455;52.710;6.502;2023-08-01T01:40:59;16.50;99.90
52555;DHT22;38455;52.710;6.502;2023-08-01T01:43:25;16.40;99.90
52555;DHT22;38455;52.710;6.502;2023-08-01T01:45:50;16.30;99.90
52555;DHT22;38455;52.710;6.502;2023-08-01T01:48:16;16.30;99.90
52555;DHT22;38455;52.710;6.502;2023-08-01T01:50:42;16.20;99.90
52555;DHT22;38455;52.710;6.502;2023-08-01T01:53:07;16.20;99.90
52555;DHT22;38455;52.710;6.502;2023-08-01T01:55:33;16.10;99.90
52555;DHT22;38455;52.710;6.502;2023-08-01T01:58:00;16.10;99.90
52555;DHT22;38455;52.710;6.502;2023-08-01T02:00:25;16.10;99.90
52555;DHT22;38455;52.710;6.502;2023-08-01T02:02:51;16.00;99.90
52555;DHT22;38455;52.710;6.502;2023-08-01T02:05:17;16.00;99.90
52555;DHT22;38455;52.710;6.502;2023-08-01T02:07:42;16.00;99.90
52555;DHT22;38455;52.710;6.502;2023-08-01T02:10:08;16.00;99.90
52555;DHT22;38455;52.710;6.502;2023-08-01T02:12:34;16.00;99.90
52555;DHT22;38455;52.710;6.502;2023-08-01T02:15:01;16.00;99.90
52555;DHT22;38455;52.710;6.502;2023-08-01T02:17:27;16.00;99.90
52555;DHT22;38455;52.710;6.502;2023-08-01T02:19:52;16.00;99.90
52555;DHT22;38455;52.710;6.502;2023-08-01T02:22:18;16.00;99.90
52555;DHT22;38455;52.710;6.502;2023-08-01T02:24:44;16.00;99.90
52555;DHT22;38455;52.710;6.502;2023-08-01T02:27:09;16.00;99.90
52555;DHT22;38455;52.710;6.502;2023-08-01T02:29:35;16.00;99.90
52555;DHT22;38455;52.710;6.502;2023-08-01T02:32:01;16.00;99.90
52555;DHT22;38455;52.710;6.502;2023-08-01T02:34:27;16.10;99.90
52555;DHT22;38455;52.710;6.502;2023-08-01T02:36:52;16.00;99.90
52555;DHT22;38455;52.710;6.502;2023-08-01T02:39:18;16.00;99.90
52555;DHT22;38455;52.710;6.502;2023-08-01T02:41:44;16.00;99.90
52555;DHT22;38455;52.710;6.502;2023-08-01T02:44:10;16.00;99.90
52555;DHT22;38455;52.710;6.502;2023-08-01T02:46:35;16.00;99.90
52555;DHT22;38455;52.710;6.502;2023-08-01T02:49:01;16.00;99.90
52555;DHT22;38455;52.710;6.502;2023-08-01T02:51:27;15.90;99.90
52555;DHT22;38455;52.710;6.502;2023-08-01T02:53:52;15.90;99.90
52555;DHT22;38455;52.710;6.502;2023-08-01T02:56:18;15.90;99.90
52555;DHT22;38455;52.710;6.502;2023-08-01T02:58:44;15.80;99.90
52555;DHT22;38455;52.710;6.502;2023-08-01T03:01:09;15.80;99.90
52555;DHT22;38455;52.710;6.502;2023-08-01T03:03:36;15.80;99.90
52555;DHT22;38455;52.710;6.502;2023-08-01T03:06:02;15.70;99.90
52555;DHT22;38455;52.710;6.502;2023-08-01T03:08:28;15.70;99.90
52555;DHT22;38455;52.710;6.502;2023-08-01T03:10:54;15.70;99.90
52555;DHT22;38455;52.710;6.502;2023-08-01T03:13:20;15.60;99.90
52555;DHT22;38455;52.710;6.502;2023-08-01T03:15:46;15.60;99.90
52555;DHT22;38455;52.710;6.502;2023-08-01T03:18:11;15.60;99.90
52555;DHT22;38455;52.710;6.502;2023-08-01T03:20:37;15.60;99.90
52555;DHT22;38455;52.710;6.502;2023-08-01T03:23:03;15.60;99.90
52555;DHT22;38455;52.710;6.502;2023-08-01T03:25:29;15.60;99.90
52555;DHT22;38455;52.710;6.502;2023-08-01T03:27:55;15.60;99.90
52555;DHT22;38455;52.710;6.502;2023-08-01T03:30:21;15.70;99.90
52555;DHT22;38455;52.710;6.502;2023-08-01T03:32:47;15.70;99.90
52555;DHT22;38455;52.710;6.502;2023-08-01T03:35:13;15.70;99.90
52555;DHT22;38455;52.710;6.502;2023-08-01T03:37:41;15.70;99.90
52555;DHT22;38455;52.710;6.502;2023-08-01T03:40:07;15.70;99.90
52555;DHT22;38455;52.710;6.502;2023-08-01T03:42:34;15.70;99.90
52555;DHT22;38455;52.710;6.502;2023-08-01T03:45:00;15.70;99.90
52555;DHT22;38455;52.710;6.502;2023-08-01T03:47:26;15.80;99.90
52555;DHT22;38455;52.710;6.502;2023-08-01T03:49:52;15.80;99.90
52555;DHT22;38455;52.710;6.502;2023-08-01T03:52:17;15.80;99.90
52555;DHT22;38455;52.710;6.502;2023-08-01T03:54:44;15.80;99.90
52555;DHT22;38455;52.710;6.502;2023-08-01T03:57:10;15.80;99.90
52555;DHT22;38455;52.710;6.502;2023-08-01T03:59:36;15.70;99.90
52555;DHT22;38455;52.710;6.502;2023-08-01T04:02:01;15.70;99.90
52555;DHT22;38455;52.710;6.502;2023-08-01T04:04:27;15.70;99.90
52555;DHT22;38455;52.710;6.502;2023-08-01T04:06:53;15.70;99.90
52555;DHT22;38455;52.710;6.502;2023-08-01T04:09:19;15.60;99.90
52555;DHT22;38455;52.710;6.502;2023-08-01T04:11:45;15.60;99.90
52555;DHT22;38455;52.710;6.502;2023-08-01T04:14:10;15.60;99.90
52555;DHT22;38455;52.710;6.502;2023-08-01T04:16:36;15.60;99.90
52555;DHT22;38455;52.710;6.502;2023-08-01T04:19:01;15.60;99.90
52555;DHT22;38455;52.710;6.502;2023-08-01T04:21:27;15.60;99.90
52555;DHT22;38455;52.710;6.502;2023-08-01T04:23:53;15.50;99.90
52555;DHT22;38455;52.710;6.502;2023-08-01T04:26:19;15.50;99.90
52555;DHT22;38455;52.710;6.502;2023-08-01T04:28:46;15.50;99.90
52555;DHT22;38455;52.710;6.502;2023-08-01T04:31:12;15.50;99.90
52555;DHT22;38455;52.710;6.502;2023-08-01T04:33:38;15.50;99.90
52555;DHT22;38455;52.710;6.502;2023-08-01T04:36:04;15.50;99.90
52555;DHT22;38455;52.710;6.502;2023-08-01T04:38:29;15.50;99.90
52555;DHT22;38455;52.710;6.502;2023-08-01T04:40:55;15.50;99.90
52555;DHT22;38455;52.710;6.502;2023-08-01T04:43:21;15.50;99.90
52555;DHT22;38455;52.710;6.502;2023-08-01T04:45:46;15.50;99.90
52555;DHT22;38455;52.710;6.502;2023-08-01T04:48:12;15.60;99.90
52555;DHT22;38455;52.710;6.502;2023-08-01T04:50:38;15.60;99.90
52555;DHT22;38455;52.710;6.502;2023-08-01T04:53:03;15.60;99.90
52555;DHT22;38455;52.710;6.502;2023-08-01T04:55:29;15.60;99.90
52555;DHT22;38455;52.710;6.502;2023-08-01T04:57:55;15.70;99.90
52555;DHT22;38455;52.710;6.502;2023-08-01T05:00:21;15.80;99.90
52555;DHT22;38455;52.710;6.502;2023-08-01T05:02:46;15.80;99.90
52555;DHT22;38455;52.710;6.502;2023-08-01T05:05:12;15.90;99.90
52555;DHT22;38455;52.710;6.502;2023-08-01T05:07:37;15.90;99.90
52555;DHT22;38455;52.710;6.502;2023-08-01T05:10:03;15.90;99.90
52555;DHT22;38455;52.710;6.502;2023-08-01T05:12:29;15.90;99.90
52555;DHT22;38455;52.710;6.502;2023-08-01T05:14:55;15.90;99.90
52555;DHT22;38455;52.710;6.502;2023-08-01T05:17:21;15.90;99.90
52555;DHT22;38455;52.710;6.502;2023-08-01T05:19:47;15.90;99.90
52555;DHT22;38455;52.710;6.502;2023-08-01T05:22:13;15.90;99.90
52555;DHT22;38455;52.710;6.502;2023-08-01T05:24:39;16.00;99.90
52555;DHT22;38455;52.710;6.502;2023-08-01T05:27:05;15.90;99.90
52555;DHT22;38455;52.710;6.502;2023-08-01T05:29:30;15.90;99.90
52555;DHT22;38455;52.710;6.502;2023-08-01T05:31:56;15.90;99.90
52555;DHT22;38455;52.710;6.502;2023-08-01T05:34:22;15.80;99.90
52555;DHT22;38455;52.710;6.502;2023-08-01T05:36:47;15.80;99.90
52555;DHT22;38455;52.710;6.502;2023-08-01T05:39:13;15.80;99.90
52555;DHT22;38455;52.710;6.502;2023-08-01T05:41:39;15.90;99.90
52555;DHT22;38455;52.710;6.502;2023-08-01T05:44:04;15.90;99.90
52555;DHT22;38455;52.710;6.502;2023-08-01T05:46:30;15.80;99.90
52555;DHT22;38455;52.710;6.502;2023-08-01T05:48:56;15.80;99.90
52555;DHT22;38455;52.710;6.502;2023-08-01T05:51:21;15.80;99.90
52555;DHT22;38455;52.710;6.502;2023-08-01T05:53:47;15.70;99.90
52555;DHT22;38455;52.710;6.502;2023-08-01T05:56:14;15.70;99.90
52555;DHT22;38455;52.710;6.502;2023-08-01T05:58:39;15.60;99.90
52555;DHT22;38455;52.710;6.502;2023-08-01T06:01:05;15.60;99.90
52555;DHT22;38455;52.710;6.502;2023-08-01T06:03:31;15.60;99.90
52555;DHT22;38455;52.710;6.502;2023-08-01T06:05:57;15.60;99.90
52555;DHT22;38455;52.710;6.502;2023-08-01T06:08:22;15.50;99.90
52555;DHT22;38455;52.710;6.502;2023-08-01T06:10:48;15.50;99.90
52555;DHT22;38455;52.710;6.502;2023-08-01T06:13:14;15.50;99.90
52555;DHT22;38455;52.710;6.502;2023-08-01T06:15:39;15.50;99.90
52555;DHT22;38455;52.710;6.502;2023-08-01T06:18:05;15.60;99.90
52555;DHT22;38455;52.710;6.502;2023-08-01T06:20:31;15.60;99.90
52555;DHT22;38455;52.710;6.502;2023-08-01T06:22:56;15.70;99.90
52555;DHT22;38455;52.710;6.502;2023-08-01T06:25:22;15.70;99.90
52555;DHT22;38455;52.710;6.502;2023-08-01T06:27:48;15.80;99.90
52555;DHT22;38455;52.710;6.502;2023-08-01T06:30:13;15.90;99.90
52555;DHT22;38455;52.710;6.502;2023-08-01T06:32:39;15.90;99.90
52555;DHT22;38455;52.710;6.502;2023-08-01T06:35:05;16.00;99.90
52555;DHT22;38455;52.710;6.502;2023-08-01T06:37:31;16.10;99.90
52555;DHT22;38455;52.710;6.502;2023-08-01T06:39:58;16.20;99.90
52555;DHT22;38455;52.710;6.502;2023-08-01T06:42:23;16.30;99.90
52555;DHT22;38455;52.710;6.502;2023-08-01T06:44:49;16.30;99.90
52555;DHT22;38455;52.710;6.502;2023-08-01T06:47:15;16.40;99.90
52555;DHT22;38455;52.710;6.502;2023-08-01T06:49:40;16.50;99.90
52555;DHT22;38455;52.710;6.502;2023-08-01T06:52:06;16.60;99.90
52555;DHT22;38455;52.710;6.502;2023-08-01T06:54:32;16.60;99.90
52555;DHT22;38455;52.710;6.502;2023-08-01T06:56:58;16.60;99.90
52555;DHT22;38455;52.710;6.502;2023-08-01T06:59:25;16.60;99.90
52555;DHT22;38455;52.710;6.502;2023-08-01T07:01:51;16.60;99.90
52555;DHT22;38455;52.710;6.502;2023-08-01T07:04:16;16.60;99.90
52555;DHT22;38455;52.710;6.502;2023-08-01T07:06:42;16.60;99.90
52555;DHT22;38455;52.710;6.502;2023-08-01T07:09:08;16.70;99.90
52555;DHT22;38455;52.710;6.502;2023-08-01T07:11:34;16.80;99.90
52555;DHT22;38455;52.710;6.502;2023-08-01T07:13:59;16.70;99.90
52555;DHT22;38455;52.710;6.502;2023-08-01T07:16:25;16.70;99.90
52555;DHT22;38455;52.710;6.502;2023-08-01T07:18:50;16.80;99.90
52555;DHT22;38455;52.710;6.502;2023-08-01T07:21:16;17.10;99.90
52555;DHT22;38455;52.710;6.502;2023-08-01T07:23:42;17.90;99.90
52555;DHT22;38455;52.710;6.502;2023-08-01T07:26:08;19.10;99.90
52555;DHT22;38455;52.710;6.502;2023-08-01T07:28:34;19.80;99.90
52555;DHT22;38455;52.710;6.502;2023-08-01T07:31:04;19.90;99.90
52555;DHT22;38455;52.710;6.502;2023-08-01T07:33:31;19.70;99.90
52555;DHT22;38455;52.710;6.502;2023-08-01T07:35:56;19.50;99.90
52555;DHT22;38455;52.710;6.502;2023-08-01T07:38:22;19.30;99.90
52555;DHT22;38455;52.710;6.502;2023-08-01T07:40:48;19.30;99.90
52555;DHT22;38455;52.710;6.502;2023-08-01T07:43:14;19.20;99.90
52555;DHT22;38455;52.710;6.502;2023-08-01T07:45:39;19.00;99.90
52555;DHT22;38455;52.710;6.502;2023-08-01T07:48:05;19.00;99.90
52555;DHT22;38455;52.710;6.502;2023-08-01T07:50:31;18.80;99.90
52555;DHT22;38455;52.710;6.502;2023-08-01T07:52:56;18.70;99.90
52555;DHT22;38455;52.710;6.502;2023-08-01T07:55:23;18.40;99.90
52555;DHT22;38455;52.710;6.502;2023-08-01T07:57:48;18.20;99.90
52555;DHT22;38455;52.710;6.502;2023-08-01T08:00:14;18.10;99.90
52555;DHT22;38455;52.710;6.502;2023-08-01T08:02:46;17.90;99.90
52555;DHT22;38455;52.710;6.502;2023-08-01T08:05:12;17.80;99.90
52555;DHT22;38455;52.710;6.502;2023-08-01T08:07:38;17.60;99.90
52555;DHT22;38455;52.710;6.502;2023-08-01T08:10:04;17.50;99.90
52555;DHT22;38455;52.710;6.502;2023-08-01T08:12:30;17.40;99.90
52555;DHT22;38455;52.710;6.502;2023-08-01T08:14:56;17.30;99.90
52555;DHT22;38455;52.710;6.502;2023-08-01T08:17:22;17.30;99.90
52555;DHT22;38455;52.710;6.502;2023-08-01T08:19:49;17.20;99.90
52555;DHT22;38455;52.710;6.502;2023-08-01T08:22:15;17.20;99.90
52555;DHT22;38455;52.710;6.502;2023-08-01T08:24:40;17.10;99.90
52555;DHT22;38455;52.710;6.502;2023-08-01T08:27:06;17.10;99.90
52555;DHT22;38455;52.710;6.502;2023-08-01T08:29:32;17.20;99.90
52555;DHT22;38455;52.710;6.502;2023-08-01T08:31:59;17.30;99.90
52555;DHT22;38455;52.710;6.502;2023-08-01T08:34:24;17.50;99.90
52555;DHT22;38455;52.710;6.502;2023-08-01T08:36:50;17.60;99.90
52555;DHT22;38455;52.710;6.502;2023-08-01T08:39:16;17.80;99.90
52555;DHT22;38455;52.710;6.502;2023-08-01T08:41:50;18.00;99.90
52555;DHT22;38455;52.710;6.502;2023-08-01T08:44:18;18.20;99.90
52555;DHT22;38455;52.710;6.502;2023-08-01T08:46:54;18.30;99.90
52555;DHT22;38455;52.710;6.502;2023-08-01T08:49:21;18.40;99.90
52555;DHT22;38455;52.710;6.502;2023-08-01T08:51:48;18.40;99.90
52555;DHT22;38455;52.710;6.502;2023-08-01T08:54:16;18.40;99.90
52555;DHT22;38455;52.710;6.502;2023-08-01T08:56:42;18.40;99.90
52555;DHT22;38455;52.710;6.502;2023-08-01T08:59:08;18.30;99.90
52555;DHT22;38455;52.710;6.502;2023-08-01T09:01:36;18.10;99.90
52555;DHT22;38455;52.710;6.502;2023-08-01T09:04:03;18.10;99.90
52555;DHT22;38455;52.710;6.502;2023-08-01T09:06:52;17.90;99.90
52555;DHT22;38455;52.710;6.502;2023-08-01T09:09:16;17.80;99.90
52555;DHT22;38455;52.710;6.502;2023-08-01T09:11:48;17.60;99.90
52555;DHT22;38455;52.710;6.502;2023-08-01T09:14:15;17.40;99.90
52555;DHT22;38455;52.710;6.502;2023-08-01T09:16:42;17.30;99.90
52555;DHT22;38455;52.710;6.502;2023-08-01T09:19:09;17.20;99.90
52555;DHT22;38455;52.710;6.502;2023-08-01T09:21:36;17.10;99.90
52555;DHT22;38455;52.710;6.502;2023-08-01T09:24:18;17.00;99.90
52555;DHT22;38455;52.710;6.502;2023-08-01T09:26:45;16.90;99.90
52555;DHT22;38455;52.710;6.502;2023-08-01T09:29:11;16.80;99.90
52555;DHT22;38455;52.710;6.502;2023-08-01T09:31:41;16.80;99.90
52555;DHT22;38455;52.710;6.502;2023-08-01T09:34:25;16.80;99.90
52555;DHT22;38455;52.710;6.502;2023-08-01T09:36:57;16.80;99.90
52555;DHT22;38455;52.710;6.502;2023-08-01T09:39:23;16.80;99.90
52555;DHT22;38455;52.710;6.502;2023-08-01T09:41:59;16.80;99.90
52555;DHT22;38455;52.710;6.502;2023-08-01T09:44:25;16.80;99.90
52555;DHT22;38455;52.710;6.502;2023-08-01T09:46:59;16.70;99.90
52555;DHT22;38455;52.710;6.502;2023-08-01T09:49:27;16.80;99.90
52555;DHT22;38455;52.710;6.502;2023-08-01T09:51:53;16.90;99.90
52555;DHT22;38455;52.710;6.502;2023-08-01T09:54:21;17.00;99.90
52555;DHT22;38455;52.710;6.502;2023-08-01T09:56:52;17.00;99.90
52555;DHT22;38455;52.710;6.502;2023-08-01T09:59:22;17.00;99.90
52555;DHT22;38455;52.710;6.502;2023-08-01T10:01:49;17.10;99.90
52555;DHT22;38455;52.710;6.502;2023-08-01T10:04:24;17.10;99.90
52555;DHT22;38455;52.710;6.502;2023-08-01T10:06:54;17.20;99.90
52555;DHT22;38455;52.710;6.502;2023-08-01T10:09:23;17.20;99.90
52555;DHT22;38455;52.710;6.502;2023-08-01T10:11:49;17.20;99.90
52555;DHT22;38455;52.710;6.502;2023-08-01T10:14:17;17.20;99.90
52555;DHT22;38455;52.710;6.502;2023-08-01T10:16:45;17.30;99.90
52555;DHT22;38455;52.710;6.502;2023-08-01T10:19:13;17.40;99.90
52555;DHT22;38455;52.710;6.502;2023-08-01T10:21:40;17.40;99.90
52555;DHT22;38455;52.710;6.502;2023-08-01T10:24:06;17.50;99.90
52555;DHT22;38455;52.710;6.502;2023-08-01T10:26:32;17.50;99.90
52555;DHT22;38455;52.710;6.502;2023-08-01T10:28:58;17.60;99.90
52555;DHT22;38455;52.710;6.502;2023-08-01T10:31:25;17.70;99.90
52555;DHT22;38455;52.710;6.502;2023-08-01T10:33:51;17.70;99.90
52555;DHT22;38455;52.710;6.502;2023-08-01T10:36:19;17.80;99.90
52555;DHT22;38455;52.710;6.502;2023-08-01T10:38:50;17.90;99.90
52555;DHT22;38455;52.710;6.502;2023-08-01T10:41:30;18.00;99.90
52555;DHT22;38455;52.710;6.502;2023-08-01T10:44:15;18.40;99.90
52555;DHT22;38455;52.710;6.502;2023-08-01T10:49:14;19.10;99.90
52555;DHT22;38455;52.710;6.502;2023-08-01T10:51:40;19.20;99.90
52555;DHT22;38455;52.710;6.502;2023-08-01T10:54:05;19.20;99.90
52555;DHT22;38455;52.710;6.502;2023-08-01T10:56:32;19.10;99.90
52555;DHT22;38455;52.710;6.502;2023-08-01T10:58:58;18.90;99.90
52555;DHT22;38455;52.710;6.502;2023-08-01T11:01:24;18.90;99.90
52555;DHT22;38455;52.710;6.502;2023-08-01T11:03:52;18.60;99.90
52555;DHT22;38455;52.710;6.502;2023-08-01T11:06:17;18.40;99.90
52555;DHT22;38455;52.710;6.502;2023-08-01T11:08:43;18.20;99.90
52555;DHT22;38455;52.710;6.502;2023-08-01T11:11:13;18.00;99.90
52555;DHT22;38455;52.710;6.502;2023-08-01T11:13:39;17.80;99.90
52555;DHT22;38455;52.710;6.502;2023-08-01T11:16:05;17.70;99.90
52555;DHT22;38455;52.710;6.502;2023-08-01T11:18:44;17.60;99.90
52555;DHT22;38455;52.710;6.502;2023-08-01T11:21:10;17.60;99.90
52555;DHT22;38455;52.710;6.502;2023-08-01T11:23:35;17.70;99.90
52555;DHT22;38455;52.710;6.502;2023-08-01T11:26:08;18.10;99.90
52555;DHT22;38455;52.710;6.502;2023-08-01T11:28:34;18.40;99.90
52555;DHT22;38455;52.710;6.502;2023-08-01T11:31:00;18.80;99.90
52555;DHT22;38455;52.710;6.502;2023-08-01T11:33:26;19.00;99.90
52555;DHT22;38455;52.710;6.502;2023-08-01T11:35:56;19.20;99.90
52555;DHT22;38455;52.710;6.502;2023-08-01T11:38:23;19.90;99.90
52555;DHT22;38455;52.710;6.502;2023-08-01T11:40:51;20.70;99.90
52555;DHT22;38455;52.710;6.502;2023-08-01T11:43:17;21.60;99.90
52555;DHT22;38455;52.710;6.502;2023-08-01T11:45:53;22.50;99.90
52555;DHT22;38455;52.710;6.502;2023-08-01T11:48:21;23.20;99.90
52555;DHT22;38455;52.710;6.502;2023-08-01T11:50:48;23.70;99.90
52555;DHT22;38455;52.710;6.502;2023-08-01T11:53:18;24.00;99.90
52555;DHT22;38455;52.710;6.502;2023-08-01T11:55:44;23.60;99.90
52555;DHT22;38455;52.710;6.502;2023-08-01T11:58:10;23.20;99.90
52555;DHT22;38455;52.710;6.502;2023-08-01T12:00:36;22.40;99.90
52555;DHT22;38455;52.710;6.502;2023-08-01T12:03:09;22.00;99.90
52555;DHT22;38455;52.710;6.502;2023-08-01T12:05:41;22.10;99.90
52555;DHT22;38455;52.710;6.502;2023-08-01T12:08:14;21.70;99.90
52555;DHT22;38455;52.710;6.502;2023-08-01T12:10:44;21.30;99.90
52555;DHT22;38455;52.710;6.502;2023-08-01T12:13:23;21.00;99.90
52555;DHT22;38455;52.710;6.502;2023-08-01T12:15:50;20.80;99.90
52555;DHT22;38455;52.710;6.502;2023-08-01T12:18:26;20.50;99.90
52555;DHT22;38455;52.710;6.502;2023-08-01T12:20:53;20.10;99.90
52555;DHT22;38455;52.710;6.502;2023-08-01T12:23:19;21.00;99.90
52555;DHT22;38455;52.710;6.502;2023-08-01T12:25:46;21.60;99.90
52555;DHT22;38455;52.710;6.502;2023-08-01T12:28:13;22.00;99.90
52555;DHT22;38455;52.710;6.502;2023-08-01T12:30:40;22.30;99.90
52555;DHT22;38455;52.710;6.502;2023-08-01T12:33:09;22.80;99.90
52555;DHT22;38455;52.710;6.502;2023-08-01T12:35:39;23.00;99.90
52555;DHT22;38455;52.710;6.502;2023-08-01T12:38:05;22.80;99.90
52555;DHT22;38455;52.710;6.502;2023-08-01T12:40:30;22.60;99.90
52555;DHT22;38455;52.710;6.502;2023-08-01T12:42:56;22.20;99.90
52555;DHT22;38455;52.710;6.502;2023-08-01T12:45:22;21.90;99.90
52555;DHT22;38455;52.710;6.502;2023-08-01T12:47:49;21.70;99.90
52555;DHT22;38455;52.710;6.502;2023-08-01T12:50:15;21.70;99.90
52555;DHT22;38455;52.710;6.502;2023-08-01T12:52:40;21.40;99.90
52555;DHT22;38455;52.710;6.502;2023-08-01T12:55:06;21.40;99.90
52555;DHT22;38455;52.710;6.502;2023-08-01T12:57:32;21.20;99.90
52555;DHT22;38455;52.710;6.502;2023-08-01T12:59:59;21.00;99.90
52555;DHT22;38455;52.710;6.502;2023-08-01T13:02:26;21.20;99.90
52555;DHT22;38455;52.710;6.502;2023-08-01T13:04:52;21.10;99.90
52555;DHT22;38455;52.710;6.502;2023-08-01T13:07:17;21.20;99.90
52555;DHT22;38455;52.710;6.502;2023-08-01T13:09:43;21.30;99.90
52555;DHT22;38455;52.710;6.502;2023-08-01T13:12:09;21.40;99.90
52555;DHT22;38455;52.710;6.502;2023-08-01T13:14:34;21.80;99.90
52555;DHT22;38455;52.710;6.502;2023-08-01T13:17:00;22.50;99.90
52555;DHT22;38455;52.710;6.502;2023-08-01T13:19:26;22.50;99.90
52555;DHT22;38455;52.710;6.502;2023-08-01T13:21:51;22.40;99.90
52555;DHT22;38455;52.710;6.502;2023-08-01T13:24:17;22.20;99.90
52555;DHT22;38455;52.710;6.502;2023-08-01T13:26:43;22.00;99.90
52555;DHT22;38455;52.710;6.502;2023-08-01T13:29:08;21.90;99.90
52555;DHT22;38455;52.710;6.502;2023-08-01T13:31:34;21.90;99.90
52555;DHT22;38455;52.710;6.502;2023-08-01T13:34:00;22.30;99.90
52555;DHT22;38455;52.710;6.502;2023-08-01T13:36:25;22.30;99.90
52555;DHT22;38455;52.710;6.502;2023-08-01T13:38:51;22.20;99.90
52555;DHT22;38455;52.710;6.502;2023-08-01T13:41:17;22.00;99.90
52555;DHT22;38455;52.710;6.502;2023-08-01T13:43:43;21.70;99.90
52555;DHT22;38455;52.710;6.502;2023-08-01T13:46:17;21.50;99.90
52555;DHT22;38455;52.710;6.502;2023-08-01T13:48:46;21.30;99.90
52555;DHT22;38455;52.710;6.502;2023-08-01T13:51:12;21.20;99.90
52555;DHT22;38455;52.710;6.502;2023-08-01T13:53:39;20.60;99.90
52555;DHT22;38455;52.710;6.502;2023-08-01T13:56:10;20.20;99.90
52555;DHT22;38455;52.710;6.502;2023-08-01T13:58:37;19.80;99.90
52555;DHT22;38455;52.710;6.502;2023-08-01T14:01:05;19.40;99.90
52555;DHT22;38455;52.710;6.502;2023-08-01T14:03:36;19.20;99.90
52555;DHT22;38455;52.710;6.502;2023-08-01T14:06:10;19.20;99.90
52555;DHT22;38455;52.710;6.502;2023-08-01T14:08:37;19.30;99.90
52555;DHT22;38455;52.710;6.502;2023-08-01T14:11:04;19.40;99.90
52555;DHT22;38455;52.710;6.502;2023-08-01T14:13:31;19.70;99.90
52555;DHT22;38455;52.710;6.502;2023-08-01T14:15:56;19.80;99.90
52555;DHT22;38455;52.710;6.502;2023-08-01T14:18:22;19.90;99.90
52555;DHT22;38455;52.710;6.502;2023-08-01T14:20:48;20.10;99.90
52555;DHT22;38455;52.710;6.502;2023-08-01T14:23:14;20.30;99.90
52555;DHT22;38455;52.710;6.502;2023-08-01T14:25:39;20.50;99.90
52555;DHT22;38455;52.710;6.502;2023-08-01T14:28:05;20.50;99.90
52555;DHT22;38455;52.710;6.502;2023-08-01T14:30:31;20.40;99.90
52555;DHT22;38455;52.710;6.502;2023-08-01T14:33:04;20.20;99.90
52555;DHT22;38455;52.710;6.502;2023-08-01T14:35:30;20.20;99.90
52555;DHT22;38455;52.710;6.502;2023-08-01T14:37:56;20.20;99.90
52555;DHT22;38455;52.710;6.502;2023-08-01T14:40:23;20.20;99.90
52555;DHT22;38455;52.710;6.502;2023-08-01T14:42:49;20.30;99.90
52555;DHT22;38455;52.710;6.502;2023-08-01T14:45:15;20.30;99.90
52555;DHT22;38455;52.710;6.502;2023-08-01T14:47:41;20.30;99.90
52555;DHT22;38455;52.710;6.502;2023-08-01T14:50:11;20.20;99.90
52555;DHT22;38455;52.710;6.502;2023-08-01T14:52:37;20.10;99.90
52555;DHT22;38455;52.710;6.502;2023-08-01T14:55:04;20.10;99.90
52555;DHT22;38455;52.710;6.502;2023-08-01T14:57:30;20.10;99.90
52555;DHT22;38455;52.710;6.502;2023-08-01T14:59:55;20.20;99.90
52555;DHT22;38455;52.710;6.502;2023-08-01T15:02:21;20.30;99.90
52555;DHT22;38455;52.710;6.502;2023-08-01T15:04:51;20.20;99.90
52555;DHT22;38455;52.710;6.502;2023-08-01T15:07:17;20.20;99.90
52555;DHT22;38455;52.710;6.502;2023-08-01T15:09:43;20.30;99.90
52555;DHT22;38455;52.710;6.502;2023-08-01T15:12:11;20.40;99.90
52555;DHT22;38455;52.710;6.502;2023-08-01T15:14:37;20.60;99.90
52555;DHT22;38455;52.710;6.502;2023-08-01T15:17:04;20.70;99.90
52555;DHT22;38455;52.710;6.502;2023-08-01T15:19:31;20.70;99.90
52555;DHT22;38455;52.710;6.502;2023-08-01T15:21:57;20.60;99.90
52555;DHT22;38455;52.710;6.502;2023-08-01T15:24:23;20.40;99.90
52555;DHT22;38455;52.710;6.502;2023-08-01T15:26:48;20.30;99.90
52555;DHT22;38455;52.710;6.502;2023-08-01T15:29:15;20.20;99.90
52555;DHT22;38455;52.710;6.502;2023-08-01T15:31:41;20.10;99.90